Time;durP1;ratioP1;P1;durP2;ratioP2;P2;SDS_P1;SDS_P2;PMS_P1;PMS_P2;Temp;Humidity;BMP_temperature;BMP_pressure;BME280_temperature;BME280_humidity;BME280_pressure;Samples;Min_cycle;Max_cycle;Signal;HPM_P1;HPM_P2
2022/01/04 00:01:59;;;;;;;;;4.50;4.50;;;;;16.57;87.57;99981.59;5043327;28;61775;-74
2022/01/04 00:04:24;;;;;;;;;8.50;6.00;;;;;16.57;86.46;99981.59;5042928;28;61762;-75
2022/01/04 00:06:50;;;;;;;;;6.50;5.25;;;;;16.57;86.99;99976.31;5043346;28;61846;-74
2022/01/04 00:09:15;;;;;;;;;7.25;6.75;;;;;16.53;86.64;99969.22;5042905;28;62393;-74
2022/01/04 00:14:15;;;;;;;;;6.00;4.75;;;;;16.50;87.13;99958.59;5043501;28;61877;-75
2022/01/04 00:16:41;;;;;;;;;9.50;6.25;;;;;16.60;87.47;99949.81;5043199;28;62026;-74
2022/01/04 00:19:07;;;;;;;;;8.50;8.50;;;;;16.58;87.01;99946.28;5042461;28;62005;-74
2022/01/04 00:21:33;;;;;;;;;11.25;7.00;;;;;16.59;86.84;99944.53;5043179;28;62042;-75
2022/01/04 00:23:58;;;;;;;;;7.00;7.00;;;;;16.51;86.70;99934.75;5058369;28;61802;-74
2022/01/04 00:26:24;;;;;;;;;14.25;8.25;;;;;16.45;86.91;99929.44;5058402;28;62034;-74
2022/01/04 00:28:49;;;;;;;;;8.00;6.25;;;;;16.47;87.42;99918.84;5042262;28;62774;-74
2022/01/04 00:31:15;;;;;;;;;9.00;9.00;;;;;16.56;87.15;99903.00;5042925;28;62117;-74
2022/01/04 00:33:40;;;;;;;;;10.25;8.50;;;;;16.66;87.45;99901.28;5055800;28;62049;-75
2022/01/04 00:36:06;;;;;;;;;8.25;8.25;;;;;16.71;87.39;99887.19;5062998;28;61726;-75
2022/01/04 00:38:32;;;;;;;;;10.25;8.50;;;;;16.69;86.74;99882.78;5062226;28;63103;-75
2022/01/04 00:40:57;;;;;;;;;7.25;7.25;;;;;16.73;87.61;99887.19;5062326;28;62199;-74
2022/01/04 00:43:23;;;;;;;;;8.25;8.25;;;;;16.79;86.72;99883.69;5062702;28;62013;-75
2022/01/04 00:45:49;;;;;;;;;10.00;6.00;;;;;16.77;86.44;99878.38;5063065;28;62158;-74
2022/01/04 00:50:40;;;;;;;;;8.00;4.75;;;;;16.82;86.31;99873.16;5062643;28;62030;-75
2022/01/04 00:53:06;;;;;;;;;5.50;5.50;;;;;16.86;86.16;99869.59;5062869;28;62062;-74
2022/01/04 00:55:33;;;;;;;;;6.50;6.00;;;;;16.86;86.58;99865.22;5062717;28;61874;-74
2022/01/04 00:57:59;;;;;;;;;11.75;7.00;;;;;16.82;85.50;99859.91;5061820;28;61815;-75
2022/01/04 01:00:26;;;;;;;;;6.50;4.25;;;;;16.76;85.59;99852.75;5062698;28;61818;-74
2022/01/04 01:02:52;;;;;;;;;10.00;8.25;;;;;16.73;85.39;99850.06;5060925;28;61871;-75
2022/01/04 01:05:18;;;;;;;;;8.25;6.00;;;;;16.67;85.05;99850.94;5062698;28;61988;-75
2022/01/04 01:07:44;;;;;;;;;2.00;2.00;;;;;16.63;85.46;99838.56;5062192;28;61832;-74
2022/01/04 01:12:49;;;;;;;;;2.75;2.75;;;;;16.56;84.43;99821.75;5062426;28;61944;-74
2022/01/04 01:15:15;;;;;;;;;2.00;2.00;;;;;16.51;85.36;99810.25;5062396;28;62168;-74
2022/01/04 01:17:40;;;;;;;;;0.50;0.50;;;;;16.52;84.61;99814.69;5060188;28;64788;-74
2022/01/04 01:20:09;;;;;;;;;1.00;1.00;;;;;16.52;84.67;99809.38;5062219;28;61703;-74
2022/01/04 01:22:35;;;;;;;;;1.00;1.00;;;;;16.47;84.60;99808.44;5062579;28;61825;-74
2022/01/04 01:25:01;;;;;;;;;1.75;1.75;;;;;16.50;84.41;99804.97;5062520;28;61781;-74
2022/01/04 01:27:26;;;;;;;;;2.00;2.00;;;;;16.50;84.82;99807.59;5061463;28;62842;-74
2022/01/04 01:29:52;;;;;;;;;2.25;2.00;;;;;16.53;85.12;99792.59;5060982;28;62159;-74
2022/01/04 01:32:17;;;;;;;;;1.00;1.00;;;;;16.51;83.82;99788.16;5061386;28;62494;-74
2022/01/04 01:34:43;;;;;;;;;3.75;1.00;;;;;16.45;83.41;99789.03;5042243;28;61979;-74
2022/01/04 01:37:09;;;;;;;;;1.75;0.00;;;;;16.37;83.20;99782.81;5041309;28;61918;-74
2022/01/04 01:39:35;;;;;;;;;1.00;1.00;;;;;16.32;83.29;99782.81;5057522;28;62274;-74
2022/01/04 01:42:00;;;;;;;;;1.25;1.25;;;;;16.28;83.11;99767.78;5041485;28;61758;-74
2022/01/04 01:44:27;;;;;;;;;1.00;1.00;;;;;16.21;83.28;99765.09;5042315;28;61703;-74
2022/01/04 01:46:52;;;;;;;;;2.00;1.00;;;;;16.23;84.28;99764.19;5041195;28;61788;-74
2022/01/04 01:49:18;;;;;;;;;1.00;1.00;;;;;16.24;83.70;99754.50;5041924;28;61771;-74
2022/01/04 01:51:45;;;;;;;;;1.00;1.00;;;;;16.23;83.38;99745.66;5042045;28;61866;-74
2022/01/04 01:54:11;;;;;;;;;0.00;0.00;;;;;16.14;83.15;99738.56;5041887;28;61891;-74
2022/01/04 01:56:36;;;;;;;;;0.25;0.00;;;;;16.09;83.27;99729.72;5040992;28;62601;-74
2022/01/04 01:59:02;;;;;;;;;0.75;0.00;;;;;16.13;84.23;99730.59;5043280;28;61753;-74
2022/01/04 02:01:27;;;;;;;;;0.00;0.00;;;;;16.15;83.40;99728.84;5043731;28;62171;-74
2022/01/04 02:03:53;;;;;;;;;0.00;0.00;;;;;16.11;82.65;99740.31;5045664;28;61868;-74
2022/01/04 02:06:21;;;;;;;;;0.00;0.00;;;;;16.01;82.47;99749.09;5043217;28;64963;-74
2022/01/04 02:08:48;;;;;;;;;0.25;0.25;;;;;16.00;82.99;99739.38;5045152;28;62203;-74
2022/01/04 02:11:14;;;;;;;;;1.00;0.00;;;;;16.00;83.18;99720.84;5045264;28;62134;-74
2022/01/04 02:13:39;;;;;;;;;0.25;0.25;;;;;15.98;83.97;99712.00;5045533;28;61652;-74
2022/01/04 02:16:08;;;;;;;;;0.00;0.00;;;;;16.06;83.60;99711.16;5044299;28;62172;-74
2022/01/04 02:18:33;;;;;;;;;1.00;1.00;;;;;16.01;83.47;99707.63;5045005;28;61778;-74
2022/01/04 02:20:59;;;;;;;;;4.00;1.00;;;;;16.05;84.52;99704.13;5045000;28;61773;-74
2022/01/04 02:23:24;;;;;;;;;0.00;0.00;;;;;16.08;82.87;99708.53;5045173;28;62121;-74
2022/01/04 02:25:50;;;;;;;;;0.00;0.00;;;;;16.05;83.24;99695.31;5044183;28;63172;-74
2022/01/04 02:28:18;;;;;;;;;0.00;0.00;;;;;15.94;82.62;99692.59;5044893;28;61870;-74
2022/01/04 02:30:44;;;;;;;;;0.00;0.00;;;;;15.93;84.04;99690.81;5043524;28;61982;-74
2022/01/04 02:33:09;;;;;;;;;0.00;0.00;;;;;15.93;83.19;99685.53;5055459;28;61761;-74
2022/01/04 02:35:35;;;;;;;;;0.00;0.00;;;;;15.99;83.70;99672.31;5064410;28;62724;-74
2022/01/04 02:38:01;;;;;;;;;0.00;0.00;;;;;15.97;81.99;99675.84;5064752;28;61952;-74
2022/01/04 02:40:27;;;;;;;;;0.00;0.00;;;;;15.89;82.20;99671.38;5080444;28;62326;-74
2022/01/04 02:42:54;;;;;;;;;0.00;0.00;;;;;15.91;83.16;99669.63;5064876;28;62134;-74
2022/01/04 02:45:20;;;;;;;;;0.00;0.00;;;;;15.84;81.83;99659.91;5064048;28;62576;-74
2022/01/04 02:47:45;;;;;;;;;0.00;0.00;;;;;15.80;83.82;99647.53;5064926;28;61772;-75
2022/01/04 02:50:11;;;;;;;;;1.00;0.00;;;;;15.85;84.07;99650.19;5064832;28;61967;-74
2022/01/04 02:52:38;;;;;;;;;0.75;0.00;;;;;15.90;83.61;99637.88;5064930;28;61980;-74
2022/01/04 02:55:05;;;;;;;;;0.00;0.00;;;;;15.93;83.61;99637.88;5063832;28;62080;-74
2022/01/04 02:57:31;;;;;;;;;0.00;0.00;;;;;15.94;83.63;99626.44;5064269;28;62154;-74
2022/01/04 02:59:57;;;;;;;;;0.00;0.00;;;;;15.94;83.63;99623.78;5064730;28;61763;-74
2022/01/04 03:02:22;;;;;;;;;0.00;0.00;;;;;16.00;83.46;99622.91;5064692;28;62058;-75
2022/01/04 03:04:47;;;;;;;;;0.00;0.00;;;;;16.01;82.79;99614.97;5062707;28;63524;-74
2022/01/04 03:07:13;;;;;;;;;1.00;0.00;;;;;15.98;83.31;99614.06;5064430;28;61879;-74
2022/01/04 03:09:38;;;;;;;;;0.00;0.00;;;;;15.97;82.44;99612.31;5064280;28;61903;-74
2022/01/04 03:12:05;;;;;;;;;0.00;0.00;;;;;15.94;82.76;99605.25;5064612;28;61741;-74
2022/01/04 03:14:30;;;;;;;;;0.00;0.00;;;;;15.98;83.03;99601.75;5063607;28;61709;-74
2022/01/04 03:16:56;;;;;;;;;0.00;0.00;;;;;16.00;83.33;99607.91;5064269;28;61876;-74
2022/01/04 03:19:21;;;;;;;;;0.00;0.00;;;;;16.01;82.95;99601.75;5064479;28;61734;-74
2022/01/04 03:21:47;;;;;;;;;0.00;0.00;;;;;16.03;83.31;99591.19;5064503;28;61897;-75
2022/01/04 03:24:14;;;;;;;;;2.00;0.00;;;;;16.05;82.79;99586.78;5063729;28;61715;-75
2022/01/04 03:26:41;;;;;;;;;0.50;0.00;;;;;16.03;82.33;99589.41;5063665;28;61924;-74
2022/01/04 03:29:09;;;;;;;;;0.00;0.00;;;;;16.03;82.39;99577.94;5062476;28;62366;-75
2022/01/04 03:31:35;;;;;;;;;0.00;0.00;;;;;16.00;82.16;99580.56;5064365;28;61884;-74
2022/01/04 03:34:02;;;;;;;;;0.00;0.00;;;;;15.92;81.53;99585.84;5045740;28;62470;-74
2022/01/04 03:36:27;;;;;;;;;0.00;0.00;;;;;15.89;82.29;99585.81;5044041;28;61710;-74
2022/01/04 03:38:54;;;;;;;;;0.00;0.00;;;;;15.92;82.92;99588.50;5042518;28;61991;-75
2022/01/04 03:41:22;;;;;;;;;0.00;0.00;;;;;15.93;82.05;99575.25;5043533;28;61826;-74
2022/01/04 03:43:48;;;;;;;;;0.00;0.00;;;;;15.82;81.88;99576.97;5043138;28;61798;-74
2022/01/04 03:46:13;;;;;;;;;0.00;0.00;;;;;15.77;82.24;99575.19;5043597;28;61790;-75
2022/01/04 03:48:39;;;;;;;;;0.00;0.00;;;;;15.70;82.47;99572.50;5043363;28;61837;-74
2022/01/04 03:51:08;;;;;;;;;1.00;0.00;;;;;15.70;82.35;99569.88;5044189;28;61994;-74
2022/01/04 03:53:34;;;;;;;;;0.00;0.00;;;;;15.72;83.02;99573.44;5042968;28;62928;-74
2022/01/04 03:55:59;;;;;;;;;0.00;0.00;;;;;15.72;82.70;99576.09;5058487;28;62048;-74
2022/01/04 03:58:25;;;;;;;;;0.00;0.00;;;;;15.67;82.03;99575.13;5043730;28;61715;-74
2022/01/04 04:00:50;;;;;;;;;0.00;0.00;;;;;15.65;82.35;99573.34;5043659;28;62001;-74
2022/01/04 04:03:16;;;;;;;;;0.00;0.00;;;;;15.63;82.97;99567.19;5042972;28;62253;-74
2022/01/04 04:05:42;;;;;;;;;0.00;0.00;;;;;15.61;82.55;99568.94;5043488;28;62417;-74
2022/01/04 04:08:07;;;;;;;;;0.00;0.00;;;;;15.58;83.11;99558.34;5043314;28;61743;-74
2022/01/04 04:10:33;;;;;;;;;0.00;0.00;;;;;15.60;83.16;99561.88;5043513;28;62202;-74
2022/01/04 04:12:58;;;;;;;;;0.00;0.00;;;;;15.56;82.42;99568.03;5058117;28;63806;-74
2022/01/04 04:15:24;;;;;;;;;0.00;0.00;;;;;15.43;82.77;99564.44;5058774;28;62130;-74
2022/01/04 04:17:49;;;;;;;;;0.00;0.00;;;;;15.42;82.63;99565.31;5043370;28;61925;-74
2022/01/04 04:20:15;;;;;;;;;0.00;0.00;;;;;15.40;83.17;99565.28;5058917;28;62005;-74
2022/01/04 04:22:40;;;;;;;;;0.00;0.00;;;;;15.42;82.34;99568.81;5057131;28;64752;-74
2022/01/04 04:25:07;;;;;;;;;0.00;0.00;;;;;15.35;83.34;99564.41;5042903;28;61765;-74
2022/01/04 04:27:32;;;;;;;;;0.00;0.00;;;;;15.35;82.36;99564.41;5043329;28;61899;-74
2022/01/04 04:29:58;;;;;;;;;0.00;0.00;;;;;15.34;82.71;99565.28;5043211;28;62001;-74
2022/01/04 04:32:23;;;;;;;;;0.00;0.00;;;;;15.34;82.36;99579.38;5046336;28;61966;-75
2022/01/04 04:34:49;;;;;;;;;0.00;0.00;;;;;15.29;82.60;99572.28;5062900;28;61833;-74
2022/01/04 04:37:14;;;;;;;;;0.00;0.00;;;;;15.29;82.77;99573.16;5062904;28;61822;-75
2022/01/04 04:39:39;;;;;;;;;0.00;0.00;;;;;15.29;82.57;99569.66;5078554;28;62749;-74
2022/01/04 04:42:05;;;;;;;;;0.00;0.00;;;;;15.25;82.63;99567.84;5077691;28;64671;-74
2022/01/04 04:44:31;;;;;;;;;0.75;0.00;;;;;15.08;82.39;99581.88;5062877;28;61763;-74
2022/01/04 04:46:57;;;;;;;;;0.00;0.00;;;;;15.10;83.64;99581.88;5062919;28;61842;-74
2022/01/04 04:49:22;;;;;;;;;0.00;0.00;;;;;15.15;83.32;99572.22;5063049;28;61966;-75
2022/01/04 04:51:48;;;;;;;;;0.00;0.00;;;;;15.20;83.41;99575.75;5062453;28;61865;-74
2022/01/04 04:54:13;;;;;;;;;0.00;0.00;;;;;15.15;82.49;99580.16;5062643;28;62228;-74
2022/01/04 04:56:39;;;;;;;;;0.00;0.00;;;;;15.16;82.66;99602.19;5062197;28;62109;-75
2022/01/04 04:59:09;;;;;;;;;0.00;0.00;;;;;15.14;82.46;99599.50;5062872;28;61826;-74
2022/01/04 05:01:36;;;;;;;;;1.50;0.00;;;;;15.02;82.53;99594.16;5062106;28;61710;-74
2022/01/04 05:04:02;;;;;;;;;0.00;0.00;;;;;14.99;83.29;99594.13;5062488;28;62605;-74
2022/01/04 05:06:28;;;;;;;;;0.00;0.00;;;;;15.05;83.10;99600.34;5062894;28;61887;-75
2022/01/04 05:08:54;;;;;;;;;0.25;0.00;;;;;15.08;83.03;99599.47;5078013;28;61806;-74
2022/01/04 05:11:19;;;;;;;;;0.00;0.00;;;;;15.09;83.25;99602.13;5060392;28;63655;-74
2022/01/04 05:13:45;;;;;;;;;0.00;0.00;;;;;15.12;83.20;99604.81;5060734;28;62300;-74
2022/01/04 05:16:11;;;;;;;;;0.00;0.00;;;;;15.07;82.99;99603.88;5061952;28;62280;-74
2022/01/04 05:18:37;;;;;;;;;0.00;0.00;;;;;15.08;83.13;99602.09;5062368;28;62068;-74
2022/01/04 05:21:03;;;;;;;;;0.75;0.00;;;;;15.05;82.89;99605.63;5061404;28;61724;-74
2022/01/04 05:23:30;;;;;;;;;0.00;0.00;;;;;15.11;83.22;99607.44;5062205;28;61945;-74
2022/01/04 05:25:55;;;;;;;;;0.00;0.00;;;;;15.12;83.76;99609.19;5061741;28;61805;-74
2022/01/04 05:28:21;;;;;;;;;0.00;0.00;;;;;15.13;83.39;99610.97;5062343;28;62155;-74
2022/01/04 05:30:47;;;;;;;;;0.00;0.00;;;;;15.11;82.52;99607.44;5061203;28;62737;-74
2022/01/04 05:33:12;;;;;;;;;0.00;0.00;;;;;15.02;81.93;99610.03;5061592;28;62176;-74
2022/01/04 05:35:37;;;;;;;;;0.00;0.00;;;;;14.91;81.93;99609.94;5062020;28;62014;-74
2022/01/04 05:38:03;;;;;;;;;0.00;0.00;;;;;14.85;81.98;99605.47;5059832;28;61895;-74
2022/01/04 05:40:28;;;;;;;;;0.00;0.00;;;;;14.81;81.69;99610.72;5061654;28;61780;-74
2022/01/04 05:42:54;;;;;;;;;2.00;0.00;;;;;14.87;82.12;99606.38;5059921;28;61912;-74
2022/01/04 05:45:19;;;;;;;;;0.00;0.00;;;;;14.81;81.55;99597.53;5077397;28;62026;-74
2022/01/04 05:47:45;;;;;;;;;0.75;0.00;;;;;14.82;80.97;99596.63;5062102;28;62023;-74
2022/01/04 05:50:11;;;;;;;;;0.00;0.00;;;;;14.78;81.03;99601.03;5061168;28;61714;-74
2022/01/04 05:52:36;;;;;;;;;0.00;0.00;;;;;14.77;81.18;99601.00;5061528;28;62057;-74
2022/01/04 05:55:02;;;;;;;;;0.00;0.00;;;;;14.80;81.30;99601.91;5060627;28;61859;-74
2022/01/04 05:57:28;;;;;;;;;0.00;0.00;;;;;14.71;81.20;99592.16;5061484;28;61761;-74
2022/01/04 05:59:53;;;;;;;;;0.00;0.00;;;;;14.75;81.88;99594.84;5059878;28;63731;-74
2022/01/04 06:02:19;;;;;;;;;0.00;0.00;;;;;14.71;81.02;99589.50;5060642;28;61743;-75
2022/01/04 06:04:44;;;;;;;;;0.00;0.00;;;;;14.76;80.91;99586.94;5060466;28;61755;-75
2022/01/04 06:07:10;;;;;;;;;0.00;0.00;;;;;14.80;81.54;99585.16;5042965;28;62024;-74
2022/01/04 06:09:44;;;;;;;;;0.00;0.00;;;;;14.74;80.71;99586.03;5039781;28;62793;-75
2022/01/04 06:15:00;;;;;;;;;2.00;0.00;;;;;14.73;81.61;99582.47;5041287;28;61793;-76
2022/01/04 06:17:31;;;;;;;;;0.00;0.00;;;;;14.73;80.48;99589.53;5056847;28;61988;-76
2022/01/04 06:19:58;;;;;;;;;0.00;0.00;;;;;14.63;81.11;99590.31;5056271;28;65077;-75
2022/01/04 06:22:25;;;;;;;;;6.00;4.50;;;;;14.58;81.37;99600.84;5040938;28;62131;-76
2022/01/04 06:24:51;;;;;;;;;2.75;1.00;;;;;14.59;81.24;99609.63;5057012;28;61761;-75
2022/01/04 06:27:17;;;;;;;;;2.00;2.00;;;;;14.54;81.24;99625.41;5049308;28;61680;-76
2022/01/04 06:29:43;;;;;;;;;0.00;0.00;;;;;14.46;81.12;99649.13;5043642;28;61722;-75
2022/01/04 06:32:10;;;;;;;;;2.00;1.00;;;;;14.39;81.85;99643.75;5042799;28;61845;-74
2022/01/04 06:34:35;;;;;;;;;2.00;1.00;;;;;14.36;81.42;99622.63;5060653;28;61739;-74
2022/01/04 06:37:01;;;;;;;;;1.00;1.00;;;;;14.45;81.50;99625.34;5076509;28;61947;-74
2022/01/04 06:39:26;;;;;;;;;3.75;1.25;;;;;14.41;82.45;99628.81;5060127;28;61774;-74
2022/01/04 06:41:52;;;;;;;;;1.00;1.00;;;;;14.43;81.90;99635.88;5056493;28;62008;-74
2022/01/04 06:44:19;;;;;;;;;1.00;1.00;;;;;14.40;82.09;99638.50;5040764;28;62169;-74
2022/01/04 06:46:45;;;;;;;;;0.25;0.25;;;;;14.29;82.06;99653.34;5059741;28;61888;-73
2022/01/04 06:49:14;;;;;;;;;2.00;2.00;;;;;14.27;82.26;99647.16;5058965;28;63792;-73
2022/01/04 06:51:40;;;;;;;;;1.00;1.00;;;;;14.22;82.39;99652.34;5043564;28;61896;-74
2022/01/04 06:54:10;;;;;;;;;3.50;2.50;;;;;14.16;82.85;99667.25;5044169;28;62151;-75
2022/01/04 06:56:36;;;;;;;;;5.50;2.00;;;;;14.08;83.05;99673.31;5043346;28;61747;-75
2022/01/04 06:59:03;;;;;;;;;3.00;3.00;;;;;14.15;83.47;99671.63;5043472;28;61793;-75
2022/01/04 07:01:28;;;;;;;;;1.25;1.25;;;;;14.10;82.87;99676.88;5043560;28;61735;-74
2022/01/04 07:03:54;;;;;;;;;1.25;1.00;;;;;14.03;82.75;99674.13;5044000;28;61718;-75
2022/01/04 07:06:19;;;;;;;;;3.00;2.50;;;;;14.06;83.17;99677.69;5056055;28;61815;-75
2022/01/04 07:08:45;;;;;;;;;3.00;1.25;;;;;14.05;83.55;99672.38;5062800;28;62486;-75
2022/01/04 07:11:10;;;;;;;;;1.00;1.00;;;;;14.06;84.17;99664.50;5061300;28;62801;-75
2022/01/04 07:13:36;;;;;;;;;5.00;3.25;;;;;13.94;84.08;99663.47;5061885;28;61961;-75
2022/01/04 07:16:01;;;;;;;;;3.00;3.00;;;;;13.87;85.13;99673.06;5062267;28;61976;-75
2022/01/04 07:18:27;;;;;;;;;5.00;5.00;;;;;13.93;84.76;99664.34;5059158;28;63637;-77
2022/01/04 07:20:52;;;;;;;;;2.00;2.00;;;;;13.97;84.65;99666.13;5060942;28;62030;-75
2022/01/04 07:23:18;;;;;;;;;2.75;2.00;;;;;13.87;83.76;99663.38;5062126;28;61890;-75
2022/01/04 07:25:43;;;;;;;;;6.00;2.75;;;;;13.90;84.09;99662.53;5063134;28;61798;-75
2022/01/04 07:28:09;;;;;;;;;2.00;2.00;;;;;13.94;84.64;99660.81;5061462;28;63730;-75
2022/01/04 07:30:35;;;;;;;;;2.50;2.50;;;;;14.07;83.83;99670.66;5062258;28;62016;-74
2022/01/04 07:33:01;;;;;;;;;1.00;1.00;;;;;13.96;83.45;99672.28;5064441;28;61791;-74
2022/01/04 07:35:26;;;;;;;;;3.00;1.25;;;;;13.96;83.55;99678.44;5063087;28;62120;-75
2022/01/04 07:37:52;;;;;;;;;1.00;1.00;;;;;14.03;83.72;99680.31;5062432;28;61746;-75
2022/01/04 07:40:18;;;;;;;;;1.00;1.00;;;;;14.10;83.89;99684.78;5061980;28;61783;-74
2022/01/04 07:42:43;;;;;;;;;4.50;2.00;;;;;14.16;83.52;99699.81;5061659;28;62254;-76
2022/01/04 07:45:09;;;;;;;;;1.00;1.00;;;;;14.22;82.78;99702.50;5060250;28;62093;-76
2022/01/04 07:47:35;;;;;;;;;3.50;2.00;;;;;14.20;83.10;99706.88;5060891;28;63444;-75
2022/01/04 07:50:01;;;;;;;;;1.50;1.50;;;;;14.18;83.19;99708.66;5062863;28;61975;-76
2022/01/04 07:52:26;;;;;;;;;2.50;2.50;;;;;14.17;83.42;99709.50;5063161;28;61720;-75
2022/01/04 07:54:53;;;;;;;;;1.25;1.00;;;;;14.22;83.22;99717.47;5061083;28;62150;-75
2022/01/04 07:57:19;;;;;;;;;2.00;2.00;;;;;14.09;82.57;99709.38;5060507;28;61880;-76
2022/01/04 07:59:44;;;;;;;;;1.00;1.00;;;;;14.15;82.91;99708.59;5063185;28;61880;-75
2022/01/04 08:02:09;;;;;;;;;1.00;1.00;;;;;14.19;82.71;99720.97;5063312;28;62645;-75
2022/01/04 08:04:35;;;;;;;;;0.50;0.50;;;;;14.18;84.06;99740.31;5061734;28;61826;-76
2022/01/04 08:07:00;;;;;;;;;1.00;1.00;;;;;14.21;83.37;99752.66;5062381;28;61975;-75
2022/01/04 08:09:26;;;;;;;;;0.75;0.75;;;;;14.09;83.36;99758.66;5062752;28;62280;-76
2022/01/04 08:11:51;;;;;;;;;2.50;2.50;;;;;13.91;83.26;99754.91;5063250;28;62110;-75
2022/01/04 08:14:17;;;;;;;;;2.75;2.75;;;;;13.87;84.25;99775.94;5063201;28;61812;-75
2022/01/04 08:16:42;;;;;;;;;5.00;5.00;;;;;13.78;84.91;99783.72;5056890;28;64921;-75
2022/01/04 08:19:08;;;;;;;;;6.50;5.00;;;;;13.75;85.20;99795.09;5062471;28;61845;-75
2022/01/04 08:21:33;;;;;;;;;5.00;2.50;;;;;13.75;85.64;99791.56;5062916;28;62502;-74
2022/01/04 08:23:59;;;;;;;;;6.00;5.00;;;;;13.79;85.00;99772.28;5062725;28;62080;-74
2022/01/04 08:26:26;;;;;;;;;4.75;4.75;;;;;13.87;84.98;99766.25;5061884;28;61703;-75
2022/01/04 08:28:51;;;;;;;;;5.50;5.00;;;;;13.91;84.41;99760.16;5061483;28;62004;-74
2022/01/04 08:31:17;;;;;;;;;8.00;5.00;;;;;13.99;84.77;99756.75;5062900;28;62046;-74
2022/01/04 08:33:42;;;;;;;;;9.00;6.00;;;;;14.06;85.06;99761.25;5062600;28;62161;-75
2022/01/04 08:36:10;;;;;;;;;9.25;5.75;;;;;14.30;83.13;99774.75;5061991;28;61777;-74
2022/01/04 08:38:35;;;;;;;;;8.75;6.00;;;;;14.11;84.30;99783.31;5062595;28;62073;-74
2022/01/04 08:41:01;;;;;;;;;5.00;5.00;;;;;14.13;83.88;99781.56;5061019;28;61818;-75
2022/01/04 08:43:27;;;;;;;;;4.75;4.00;;;;;14.28;84.38;99794.97;5060935;28;62322;-75
2022/01/04 08:45:53;;;;;;;;;5.00;5.00;;;;;14.36;83.82;99783.66;5061250;28;62661;-74
2022/01/04 08:48:18;;;;;;;;;7.00;7.00;;;;;14.39;82.58;99786.31;5062166;28;61699;-74
2022/01/04 08:50:44;;;;;;;;;8.00;6.00;;;;;14.38;83.67;99797.75;5061869;28;61645;-75
2022/01/04 08:53:12;;;;;;;;;9.25;6.00;;;;;14.48;83.76;99803.19;5062110;28;61754;-74
2022/01/04 08:55:38;;;;;;;;;5.75;5.75;;;;;14.51;82.56;99800.56;5076942;28;64208;-74
2022/01/04 08:58:05;;;;;;;;;4.00;4.00;;;;;14.55;82.58;99800.63;5060648;28;62805;-75
2022/01/04 09:00:31;;;;;;;;;4.25;4.25;;;;;14.58;82.54;99788.34;5061920;28;62031;-74
2022/01/04 09:02:56;;;;;;;;;4.00;3.50;;;;;14.60;82.92;99791.88;5061415;28;61915;-76
2022/01/04 09:05:22;;;;;;;;;2.25;2.25;;;;;14.66;81.71;99796.38;5055225;28;62020;-74
2022/01/04 09:07:47;;;;;;;;;5.25;2.25;;;;;14.63;81.81;99804.25;5077447;27;62011;-77
2022/01/04 09:10:13;;;;;;;;;3.00;3.00;;;;;14.67;82.14;99806.06;5061886;28;61883;-79
2022/01/04 09:15:17;;;;;;;;;3.00;3.00;;;;;14.75;81.73;99825.53;5057667;28;62333;-78
2022/01/04 09:20:28;;;;;;;;;3.50;3.00;;;;;14.79;81.89;99811.50;5062164;28;61813;-79
2022/01/04 09:22:54;;;;;;;;;2.00;2.00;;;;;14.85;81.42;99805.41;5056525;28;61811;-77
2022/01/04 09:25:20;;;;;;;;;2.00;2.00;;;;;14.91;81.67;99795.78;5039499;28;65086;-78
2022/01/04 09:27:45;;;;;;;;;4.00;2.75;;;;;14.88;81.33;99795.72;5041666;28;62115;-76
2022/01/04 09:30:11;;;;;;;;;3.00;3.00;;;;;14.88;81.12;99784.28;5041332;28;61816;-76
2022/01/04 09:32:36;;;;;;;;;2.50;2.50;;;;;14.87;80.37;99772.84;5047390;28;61870;-77
2022/01/04 09:35:04;;;;;;;;;3.75;3.25;;;;;14.93;80.58;99774.63;5059869;28;64708;-77
2022/01/04 09:37:30;;;;;;;;;1.75;1.75;;;;;14.89;80.49;99786.06;5061374;28;61979;-77
2022/01/04 09:39:55;;;;;;;;;1.00;1.00;;;;;14.92;80.20;99796.66;5061733;28;61983;-77
2022/01/04 09:42:21;;;;;;;;;1.00;1.00;;;;;14.89;80.14;99805.44;5048212;28;62035;-78
2022/01/04 09:44:48;;;;;;;;;3.25;3.00;;;;;14.89;80.35;99802.81;5042543;28;62767;-79
2022/01/04 09:47:30;;;;;;;;;9.00;1.50;;;;;14.88;80.60;99805.41;5043415;28;61793;-78
2022/01/04 09:49:57;;;;;;;;;1.00;1.00;;;;;14.93;79.51;99809.00;5046811;28;61986;-76
2022/01/04 09:52:35;;;;;;;;;1.00;1.00;;;;;14.92;79.57;99817.81;5059847;28;61961;-76
2022/01/04 09:55:00;;;;;;;;;2.00;1.00;;;;;14.87;79.14;99822.16;5060977;28;61998;-75
2022/01/04 09:57:26;;;;;;;;;1.50;1.50;;;;;14.96;80.09;99829.31;5058802;28;62020;-78
2022/01/04 09:59:51;;;;;;;;;3.25;2.00;;;;;15.04;80.06;99830.25;5061206;28;61955;-78
2022/01/04 10:02:20;;;;;;;;;3.00;1.25;;;;;15.08;79.75;99830.31;5061289;28;61687;-79
2022/01/04 10:04:46;;;;;;;;;0.75;0.75;;;;;15.09;80.20;99839.13;5060642;28;62268;-79
2022/01/04 10:07:12;;;;;;;;;3.25;3.00;;;;;15.09;79.56;99825.91;5060152;28;61897;-78
2022/01/04 10:09:45;;;;;;;;;3.50;2.00;;;;;15.18;79.56;99843.63;5059783;28;61947;-77
2022/01/04 10:12:16;;;;;;;;;1.50;1.50;;;;;15.17;79.05;99834.81;5059878;28;62113;-76
2022/01/04 10:14:44;;;;;;;;;3.00;1.00;;;;;15.20;79.40;99847.16;5047616;28;62782;-76
2022/01/04 10:17:23;;;;;;;;;3.75;2.00;;;;;15.17;79.68;99840.09;5049532;28;61928;-79
2022/01/04 10:19:53;;;;;;;;;3.25;1.75;;;;;15.17;79.35;99850.69;5060983;28;61990;-78
2022/01/04 10:22:27;;;;;;;;;3.00;2.00;;;;;15.21;79.41;99862.16;5063356;28;61940;-78
2022/01/04 10:25:04;;;;;;;;;2.50;2.50;;;;;15.20;78.96;99849.81;5063910;28;61754;-75
2022/01/04 10:27:34;;;;;;;;;2.25;2.00;;;;;15.21;79.60;99839.25;5079237;28;61948;-77
2022/01/04 10:30:25;;;;;;;;;2.00;2.00;;;;;15.28;78.21;99832.28;5080294;28;61913;-78
2022/01/04 10:32:52;;;;;;;;;2.25;2.00;;;;;15.36;78.79;99822.66;5064434;28;61900;-77
2022/01/04 10:35:21;;;;;;;;;1.75;1.75;;;;;15.34;78.04;99832.34;5062783;28;63781;-77
2022/01/04 10:37:46;;;;;;;;;2.75;2.75;;;;;15.33;77.83;99830.56;5064519;28;61866;-76
2022/01/04 10:40:12;;;;;;;;;1.00;0.50;;;;;15.38;78.02;99830.59;5064640;28;61793;-76
2022/01/04 10:42:37;;;;;;;;;1.00;1.00;;;;;15.38;77.43;99830.59;5056585;28;61901;-77
2022/01/04 10:45:22;;;;;;;;;2.00;1.00;;;;;15.43;78.12;99832.41;5043755;28;62085;-77
2022/01/04 10:47:47;;;;;;;;;1.00;1.00;;;;;15.45;77.12;99835.09;5059587;28;61948;-77
2022/01/04 10:50:12;;;;;;;;;1.00;1.00;;;;;15.45;77.59;99821.88;5043667;28;61762;-77
2022/01/04 10:52:38;;;;;;;;;1.00;1.00;;;;;15.49;77.36;99829.84;5043852;28;61769;-76
2022/01/04 10:55:14;;;;;;;;;0.00;0.00;;;;;15.51;77.17;99830.75;5043179;28;61849;-76
2022/01/04 10:57:39;;;;;;;;;5.00;0.75;;;;;15.39;76.93;99833.25;5043094;28;61704;-75
2022/01/04 11:00:17;;;;;;;;;0.00;0.00;;;;;15.46;77.25;99831.56;5059087;28;61819;-79
2022/01/04 11:02:42;;;;;;;;;1.00;1.00;;;;;15.39;77.79;99835.91;5043296;28;61920;-79
2022/01/04 11:05:15;;;;;;;;;0.50;0.50;;;;;15.36;77.56;99832.34;5045434;28;61814;-76
2022/01/04 11:08:00;;;;;;;;;1.00;1.00;;;;;15.33;77.67;99834.06;5043549;28;62068;-78
2022/01/04 11:10:28;;;;;;;;;0.75;0.75;;;;;15.29;77.94;99832.28;5059092;28;61909;-79
2022/01/04 11:12:58;;;;;;;;;4.75;1.00;;;;;15.26;78.17;99829.59;5054782;28;61912;-77
2022/01/04 11:15:24;;;;;;;;;2.25;1.00;;;;;15.28;77.86;99819.06;5063141;28;61827;-77
2022/01/04 11:17:50;;;;;;;;;3.00;0.00;;;;;15.38;78.52;99815.63;5063950;28;62170;-78
2022/01/04 11:20:17;;;;;;;;;1.50;1.00;;;;;15.44;78.39;99820.06;5062379;28;62473;-79
2022/01/04 11:22:46;;;;;;;;;1.00;1.00;;;;;15.54;77.96;99821.94;5061982;28;61896;-81
2022/01/04 11:25:13;;;;;;;;;2.00;1.00;;;;;15.57;77.46;99835.16;5063183;28;62197;-75
2022/01/04 11:27:40;;;;;;;;;0.00;0.00;;;;;15.56;77.77;99838.72;5063161;28;61758;-78
2022/01/04 11:30:23;;;;;;;;;6.00;1.00;;;;;15.61;77.95;99836.09;5055185;28;61975;-76
2022/01/04 11:32:55;;;;;;;;;1.00;0.00;;;;;15.59;77.83;99820.19;5073161;28;62174;-78
2022/01/04 11:35:22;;;;;;;;;0.00;0.00;;;;;15.67;77.11;99815.88;5078198;28;63691;-77
2022/01/04 11:37:58;;;;;;;;;0.00;0.00;;;;;15.69;76.94;99821.19;5063157;28;62056;-75
2022/01/04 11:40:34;;;;;;;;;2.25;1.00;;;;;15.72;77.45;99814.19;5078890;28;61844;-77
2022/01/04 11:43:01;;;;;;;;;1.00;1.00;;;;;15.79;77.30;99822.16;5063038;28;62037;-77
2022/01/04 11:45:42;;;;;;;;;0.00;0.00;;;;;15.75;76.58;99821.25;5062710;28;61839;-77
2022/01/04 11:48:32;;;;;;;;;1.00;0.00;;;;;15.67;76.92;99801.75;5078118;28;61794;-77